createdAt,value
2018-02-22T00:01:01.112Z,73.51
2018-02-22T00:02:03.587Z,73.71
2018-02-22T00:03:06.094Z,73.95
2018-02-22T00:04:08.582Z,74.75
2018-02-22T00:05:11.060Z,74.96
2018-02-22T00:06:13.550Z,75.09
2018-02-22T00:07:16.036Z,75.42
2018-02-22T00:08:18.511Z,75.57
2018-02-22T00:09:21.006Z,75.04
2018-02-22T00:10:23.490Z,75.33
2018-02-22T00:11:25.998Z,75.04
2018-02-22T00:12:28.485Z,75.03
2018-02-22T00:13:30.974Z,75.18
2018-02-22T00:14:33.472Z,74.73
2018-02-22T00:15:35.961Z,74.54
2018-02-22T00:16:38.475Z,75.44
2018-02-22T00:17:40.981Z,75.18
2018-02-22T00:18:43.455Z,75.40
2018-02-22T00:19:45.936Z,75.04
2018-02-22T00:20:48.411Z,74.26
2018-02-22T00:21:50.929Z,74.71
2018-02-22T00:22:53.421Z,74.83
2018-02-22T00:23:55.905Z,75.12
2018-02-22T00:24:58.459Z,75.25
2018-02-22T00:26:00.953Z,75.69
2018-02-22T00:27:03.464Z,75.61
2018-02-22T00:28:05.948Z,75.84
2018-02-22T00:29:08.461Z,76.63
2018-02-22T00:30:10.946Z,76.31
2018-02-22T00:31:13.515Z,76.39
2018-02-22T00:32:15.993Z,76.04
2018-02-22T00:33:18.463Z,75.52
2018-02-22T00:34:20.953Z,76.06
2018-02-22T00:35:23.432Z,76.46
2018-02-22T00:36:25.951Z,76.40
2018-02-22T00:37:28.465Z,76.36
2018-02-22T00:38:31.684Z,76.69
2018-02-22T00:39:34.163Z,76.70
2018-02-22T00:40:36.647Z,76.90
2018-02-22T00:41:39.143Z,76.22
2018-02-22T00:42:41.656Z,75.16
2018-02-22T00:43:44.149Z,74.45
2018-02-22T00:44:46.628Z,74.59
2018-02-22T00:45:49.106Z,74.82
2018-02-22T00:46:51.594Z,75.11
2018-02-22T00:47:54.079Z,75.50
2018-02-22T00:48:56.566Z,75.07
2018-02-22T00:49:59.043Z,75.51
2018-02-22T00:51:01.534Z,76.13
2018-02-22T00:52:04.006Z,76.70
2018-02-22T00:53:06.507Z,77.32
2018-02-22T00:54:09.007Z,77.85
2018-02-22T00:55:11.497Z,78.34
2018-02-22T00:56:13.993Z,78.60
2018-02-22T00:57:16.494Z,78.80
2018-02-22T00:58:19.011Z,78.96
2018-02-22T00:59:21.484Z,77.45
2018-02-22T01:00:23.981Z,77.22
2018-02-22T01:01:26.458Z,77.73
2018-02-22T01:02:28.935Z,78.23
2018-02-22T01:03:31.421Z,78.29
2018-02-22T01:04:33.922Z,78.52
2018-02-22T01:05:36.413Z,78.59
2018-02-22T01:06:38.908Z,78.98
2018-02-22T01:07:41.405Z,79.15
2018-02-22T01:08:43.896Z,79.39
2018-02-22T01:09:46.387Z,79.51
2018-02-22T01:10:48.868Z,78.37
2018-02-22T01:11:51.791Z,78.85
2018-02-22T01:12:54.271Z,79.17
2018-02-22T01:13:56.759Z,78.46
2018-02-22T01:14:59.245Z,77.55
2018-02-22T01:16:01.737Z,78.26
2018-02-22T01:17:04.220Z,78.80
2018-02-22T01:18:06.703Z,78.86
2018-02-22T01:19:09.201Z,78.48
2018-02-22T01:20:11.698Z,78.22
2018-02-22T01:21:14.173Z,77.62
2018-02-22T01:22:16.694Z,76.84
2018-02-22T01:23:19.167Z,77.11
2018-02-22T01:24:21.665Z,77.04
2018-02-22T01:25:24.154Z,76.72
2018-02-22T01:26:26.652Z,77.43
2018-02-22T01:27:29.141Z,77.35
2018-02-22T01:28:31.619Z,77.78
2018-02-22T01:29:34.113Z,77.78
2018-02-22T01:30:36.601Z,78.34
2018-02-22T01:31:39.083Z,78.00
2018-02-22T01:32:41.585Z,77.53
2018-02-22T01:33:44.081Z,76.95
2018-02-22T01:34:46.586Z,77.37
2018-02-22T01:35:49.067Z,77.28
2018-02-22T01:36:51.556Z,77.24
2018-02-22T01:37:54.035Z,77.94
2018-02-22T01:38:56.507Z,78.29
2018-02-22T01:39:59.000Z,77.84
2018-02-22T01:41:01.485Z,78.09
2018-02-22T01:42:03.963Z,78.21
2018-02-22T01:43:06.457Z,77.55
2018-02-22T01:44:08.962Z,77.57
2018-02-22T01:45:11.443Z,78.03
2018-02-22T01:46:13.943Z,78.36
2018-02-22T01:47:16.432Z,78.34
2018-02-22T01:48:18.903Z,78.37
2018-02-22T01:49:21.401Z,77.11
2018-02-22T01:50:23.894Z,77.11
2018-02-22T01:51:26.381Z,77.96
2018-02-22T01:52:28.870Z,78.19
2018-02-22T01:53:31.356Z,77.65
2018-02-22T01:54:33.837Z,77.71
2018-02-22T01:55:36.329Z,78.44
2018-02-22T01:56:38.807Z,77.83
2018-02-22T01:57:41.297Z,78.47
2018-02-22T01:58:43.786Z,77.00
2018-02-22T01:59:46.263Z,76.82
2018-02-22T02:00:48.762Z,76.24
2018-02-22T02:01:51.253Z,76.15
2018-02-22T02:02:53.746Z,76.18
2018-02-22T02:03:56.234Z,76.41
2018-02-22T02:04:58.732Z,76.82
2018-02-22T02:06:01.206Z,76.21
2018-02-22T02:07:03.703Z,76.41
2018-02-22T02:08:06.187Z,75.88
2018-02-22T02:09:08.676Z,75.96
2018-02-22T02:10:11.161Z,76.84
2018-02-22T02:11:13.643Z,76.33
2018-02-22T02:12:16.129Z,75.65
2018-02-22T02:13:18.607Z,75.32
2018-02-22T02:14:21.097Z,75.79
2018-02-22T02:15:23.584Z,76.24
2018-02-22T02:16:26.080Z,76.21
2018-02-22T02:17:28.569Z,76.22
2018-02-22T02:18:31.895Z,75.76
2018-02-22T02:19:34.385Z,75.64
2018-02-22T02:20:36.860Z,76.25
2018-02-22T02:21:39.339Z,76.89
2018-02-22T02:22:41.825Z,77.36
2018-02-22T02:23:44.317Z,77.62
2018-02-22T02:24:46.790Z,77.18
2018-02-22T02:25:49.279Z,77.03
2018-02-22T02:26:51.751Z,76.60
2018-02-22T02:27:59.859Z,75.78
2018-02-22T02:29:02.345Z,76.12
2018-02-22T02:30:04.833Z,76.70
2018-02-22T02:31:07.303Z,77.39
2018-02-22T02:32:09.792Z,77.78
2018-02-22T02:33:12.281Z,76.56
2018-02-22T02:34:14.762Z,76.71
2018-02-22T02:35:17.238Z,76.00
2018-02-22T02:36:19.725Z,76.42
2018-02-22T02:37:22.221Z,76.77
2018-02-22T02:38:24.709Z,75.76
2018-02-22T02:39:27.207Z,75.19
2018-02-22T02:40:29.707Z,74.94
2018-02-22T02:41:32.206Z,75.51
2018-02-22T02:42:34.676Z,75.89
2018-02-22T02:43:37.166Z,76.15
2018-02-22T02:44:39.651Z,75.66
2018-02-22T02:45:42.150Z,75.12
2018-02-22T02:46:44.623Z,74.75
2018-02-22T02:47:47.120Z,74.41
2018-02-22T02:48:49.598Z,74.45
2018-02-22T02:49:52.068Z,74.52
2018-02-22T02:50:54.567Z,74.70
2018-02-22T02:51:57.072Z,74.73
2018-02-22T02:52:59.569Z,75.16
2018-02-22T02:54:02.039Z,74.50
2018-02-22T02:55:04.520Z,74.29
2018-02-22T02:56:07.020Z,74.06
2018-02-22T02:57:09.491Z,74.04
2018-02-22T02:58:11.978Z,74.33
2018-02-22T02:59:14.472Z,75.09
2018-02-22T03:00:16.949Z,74.65
2018-02-22T03:01:19.427Z,74.61
2018-02-22T03:02:21.918Z,74.54
2018-02-22T03:03:24.404Z,74.66
2018-02-22T03:04:26.885Z,74.55
2018-02-22T03:05:29.379Z,74.56
2018-02-22T03:06:31.850Z,74.43
2018-02-22T03:07:34.345Z,74.42
2018-02-22T03:08:36.837Z,74.56
2018-02-22T03:09:39.319Z,74.61
2018-02-22T03:10:41.804Z,74.55
2018-02-22T03:11:44.279Z,74.96
2018-02-22T03:12:46.770Z,75.06
2018-02-22T03:13:49.249Z,74.52
2018-02-22T03:14:51.741Z,75.12
2018-02-22T03:15:54.237Z,75.15
2018-02-22T03:16:56.715Z,75.54
2018-02-22T03:17:59.206Z,75.84
2018-02-22T03:19:01.693Z,75.80
2018-02-22T03:20:04.171Z,75.25
2018-02-22T03:21:06.669Z,75.79
2018-02-22T03:22:09.168Z,76.55
2018-02-22T03:23:11.651Z,76.86
2018-02-22T03:24:14.128Z,77.19
2018-02-22T03:25:16.621Z,76.86
2018-02-22T03:26:19.099Z,76.50
2018-02-22T03:27:21.600Z,76.38
2018-02-22T03:28:24.094Z,76.42
2018-02-22T03:29:26.580Z,76.64
2018-02-22T03:30:29.078Z,75.88
2018-02-22T03:31:31.552Z,75.28
2018-02-22T03:32:34.049Z,75.26
2018-02-22T03:33:36.541Z,74.68
2018-02-22T03:34:39.066Z,74.40
2018-02-22T03:35:41.559Z,75.15
2018-02-22T03:36:44.040Z,76.09
2018-02-22T03:37:46.521Z,76.69
2018-02-22T03:38:48.999Z,77.04
2018-02-22T03:39:51.477Z,76.52
2018-02-22T03:40:53.966Z,76.20
2018-02-22T03:41:56.528Z,76.43
2018-02-22T03:42:59.004Z,76.16
2018-02-22T03:44:01.476Z,75.75
2018-02-22T03:45:03.967Z,74.69
2018-02-22T03:46:06.507Z,74.27
2018-02-22T03:47:08.970Z,74.17
2018-02-22T03:48:11.443Z,74.72
2018-02-22T03:49:13.945Z,74.08
2018-02-22T03:50:16.433Z,75.17
2018-02-22T03:51:18.910Z,74.97
2018-02-22T03:52:21.397Z,74.87
2018-02-22T03:53:23.897Z,74.21
2018-02-22T03:54:26.412Z,73.89
2018-02-22T03:55:28.891Z,74.34
2018-02-22T03:56:31.377Z,74.83
2018-02-22T03:57:33.870Z,74.68
2018-02-22T03:58:36.371Z,75.01
2018-02-22T03:59:38.863Z,75.95
2018-02-22T04:00:41.349Z,76.48
2018-02-22T04:01:43.841Z,75.38
2018-02-22T04:02:46.334Z,75.70
2018-02-22T04:03:48.823Z,76.09
2018-02-22T04:04:51.299Z,76.53
2018-02-22T04:05:53.809Z,76.85
2018-02-22T04:06:56.302Z,76.97
2018-02-22T04:07:58.775Z,76.67
2018-02-22T04:09:01.251Z,76.88
2018-02-22T04:10:03.727Z,77.05
2018-02-22T04:11:06.203Z,77.56
2018-02-22T04:12:08.721Z,77.95
2018-02-22T04:13:11.209Z,78.05
2018-02-22T04:14:13.687Z,78.44
2018-02-22T04:15:16.172Z,78.63
2018-02-22T04:16:18.651Z,77.43
2018-02-22T04:17:21.136Z,76.74
2018-02-22T04:18:23.613Z,76.74
2018-02-22T04:19:26.105Z,76.39
2018-02-22T04:20:29.499Z,75.88
2018-02-22T04:21:31.972Z,76.31
2018-02-22T04:22:34.446Z,75.95
2018-02-22T04:23:36.943Z,75.77
2018-02-22T04:24:39.425Z,76.06
2018-02-22T04:25:41.921Z,75.46
2018-02-22T04:26:44.395Z,75.90
2018-02-22T04:27:46.885Z,75.68
2018-02-22T04:28:49.375Z,75.42
2018-02-22T04:29:51.857Z,75.81
2018-02-22T04:30:54.426Z,75.98
2018-02-22T04:31:56.921Z,76.08
2018-02-22T04:32:59.395Z,76.15
2018-02-22T04:34:01.874Z,76.17
2018-02-22T04:35:04.369Z,76.22
2018-02-22T04:36:06.842Z,75.80
2018-02-22T04:37:09.338Z,75.98
2018-02-22T04:38:11.829Z,76.23
2018-02-22T04:39:14.303Z,75.85
2018-02-22T04:40:16.797Z,76.41
2018-02-22T04:41:19.271Z,77.11
2018-02-22T04:42:21.761Z,77.52
2018-02-22T04:43:24.247Z,77.15
2018-02-22T04:44:26.732Z,77.10
2018-02-22T04:45:29.207Z,76.47
2018-02-22T04:46:31.709Z,76.18
2018-02-22T04:47:34.210Z,75.58
2018-02-22T04:48:36.706Z,75.02
2018-02-22T04:49:39.201Z,75.13
2018-02-22T04:50:41.705Z,75.38
2018-02-22T04:51:44.179Z,74.84
2018-02-22T04:52:46.657Z,74.99
2018-02-22T04:53:49.126Z,75.08
2018-02-22T04:54:51.614Z,74.94
2018-02-22T04:55:54.104Z,75.07
2018-02-22T04:56:56.596Z,75.18
2018-02-22T04:57:59.081Z,74.64
2018-02-22T04:59:01.573Z,74.45
2018-02-22T05:00:04.062Z,74.74
2018-02-22T05:01:06.553Z,74.68
2018-02-22T05:02:09.033Z,74.46
2018-02-22T05:03:11.521Z,74.78
2018-02-22T05:04:14.019Z,74.66
2018-02-22T05:05:16.510Z,75.01
2018-02-22T05:06:19.008Z,74.34
2018-02-22T05:07:21.497Z,74.48
2018-02-22T05:08:23.991Z,74.72
2018-02-22T05:09:26.477Z,74.66
2018-02-22T05:10:28.949Z,74.43
2018-02-22T05:11:31.445Z,74.25
2018-02-22T05:12:33.953Z,74.70
2018-02-22T05:13:36.446Z,75.23
2018-02-22T05:14:38.973Z,74.92
2018-02-22T05:15:41.494Z,74.76
2018-02-22T05:16:43.981Z,75.67
2018-02-22T05:17:46.454Z,75.94
2018-02-22T05:18:49.791Z,75.18
2018-02-22T05:19:52.297Z,75.08
2018-02-22T05:20:54.780Z,75.14
2018-02-22T05:21:57.252Z,75.59
2018-02-22T05:22:59.745Z,75.92
2018-02-22T05:24:02.235Z,75.59
2018-02-22T05:25:04.722Z,75.02
2018-02-22T05:26:07.209Z,75.59
2018-02-22T05:27:09.716Z,75.98
2018-02-22T05:28:12.213Z,75.81
2018-02-22T05:29:14.701Z,75.82
2018-02-22T05:30:17.204Z,75.47
2018-02-22T05:31:19.676Z,75.53
2018-02-22T05:32:22.165Z,75.58
2018-02-22T05:33:24.711Z,74.89
2018-02-22T05:34:27.183Z,74.92
2018-02-22T05:35:29.670Z,76.07
2018-02-22T05:36:32.148Z,76.67
2018-02-22T05:37:34.627Z,76.81
2018-02-22T05:38:37.112Z,76.28
2018-02-22T05:39:39.631Z,76.40
2018-02-22T05:40:42.103Z,75.81
2018-02-22T05:41:44.597Z,75.48
2018-02-22T05:42:47.088Z,74.96
2018-02-22T05:43:49.563Z,74.82
2018-02-22T05:44:52.076Z,75.48
2018-02-22T05:45:54.552Z,75.39
2018-02-22T05:46:57.040Z,75.96
2018-02-22T05:47:59.571Z,75.78
2018-02-22T05:49:02.047Z,76.41
2018-02-22T05:50:04.538Z,76.91
2018-02-22T05:51:07.014Z,76.36
2018-02-22T05:52:09.509Z,76.17
2018-02-22T05:53:12.005Z,76.35
2018-02-22T05:54:14.497Z,76.79
2018-02-22T05:55:17.106Z,76.48
2018-02-22T05:56:19.578Z,77.05
2018-02-22T05:57:22.103Z,77.66
2018-02-22T05:58:24.598Z,77.46
2018-02-22T05:59:27.076Z,77.02
2018-02-22T06:00:29.575Z,76.64
2018-02-22T06:01:32.067Z,77.08
2018-02-22T06:02:34.571Z,76.92
2018-02-22T06:03:37.277Z,77.24
2018-02-22T06:04:39.796Z,76.90
2018-02-22T06:05:42.286Z,75.00
2018-02-22T06:06:44.770Z,76.31
2018-02-22T06:07:47.312Z,76.85
2018-02-22T06:08:49.743Z,74.87
2018-02-22T06:09:52.310Z,74.33
2018-02-22T06:10:54.871Z,72.70
2018-02-22T06:11:57.346Z,73.45
2018-02-22T06:12:59.869Z,72.59
2018-02-22T06:14:02.376Z,72.83
2018-02-22T06:15:04.849Z,72.10
2018-02-22T06:16:07.366Z,72.43
2018-02-22T06:17:09.929Z,72.26
2018-02-22T06:18:12.414Z,72.13
2018-02-22T06:19:14.887Z,72.61
2018-02-22T06:20:17.377Z,72.66
2018-02-22T06:21:19.864Z,73.22
2018-02-22T06:22:22.361Z,73.43
2018-02-22T06:23:24.835Z,72.49
2018-02-22T06:24:27.336Z,73.01
2018-02-22T06:25:29.835Z,72.45
2018-02-22T06:26:32.352Z,72.63
2018-02-22T06:27:34.827Z,72.42
2018-02-22T06:28:37.304Z,72.95
2018-02-22T06:29:39.826Z,72.42
2018-02-22T06:30:42.313Z,72.01
2018-02-22T06:31:44.848Z,71.39
2018-02-22T06:32:47.319Z,71.90
2018-02-22T06:33:49.788Z,71.98
2018-02-22T06:34:52.274Z,72.48
2018-02-22T06:35:54.982Z,72.01
2018-02-22T06:36:57.479Z,72.18
2018-02-22T06:37:59.953Z,72.17
2018-02-22T06:39:02.449Z,72.14
2018-02-22T06:40:05.010Z,72.13
2018-02-22T06:41:07.484Z,72.38
2018-02-22T06:42:09.977Z,71.93
2018-02-22T06:43:12.469Z,71.70
2018-02-22T06:44:15.080Z,71.99
2018-02-22T06:45:17.551Z,72.09
2018-02-22T06:46:20.046Z,71.96
2018-02-22T06:47:22.545Z,71.99
2018-02-22T06:48:25.023Z,72.10
2018-02-22T06:49:27.491Z,72.44
2018-02-22T06:50:29.967Z,72.97
2018-02-22T06:51:32.443Z,72.30
2018-02-22T06:52:34.919Z,71.58
2018-02-22T06:53:37.392Z,71.80
2018-02-22T06:54:39.918Z,72.15
2018-02-22T06:55:42.397Z,72.95
2018-02-22T06:56:44.882Z,72.63
2018-02-22T06:57:47.390Z,72.27
2018-02-22T06:58:49.868Z,71.05
2018-02-22T06:59:52.357Z,71.44
2018-02-22T07:00:54.843Z,70.90
2018-02-22T07:01:57.428Z,70.66
2018-02-22T07:02:59.988Z,71.38
2018-02-22T07:04:02.477Z,71.31
2018-02-22T07:05:04.969Z,70.97
2018-02-22T07:06:07.456Z,70.26
2018-02-22T07:07:09.932Z,70.24
2018-02-22T07:08:12.412Z,70.12
2018-02-22T07:09:14.888Z,70.82
2018-02-22T07:10:17.390Z,70.86
2018-02-22T07:11:19.868Z,69.99
2018-02-22T07:12:22.357Z,70.03
2018-02-22T07:13:24.895Z,69.68
2018-02-22T07:14:27.383Z,69.54
2018-02-22T07:15:29.856Z,69.87
2018-02-22T07:16:32.331Z,70.30
2018-02-22T07:17:34.807Z,69.83
2018-02-22T07:18:37.280Z,70.44
2018-02-22T07:19:39.760Z,70.78
2018-02-22T07:20:42.244Z,70.55
2018-02-22T07:21:44.715Z,70.64
2018-02-22T07:22:47.192Z,70.79
2018-02-22T07:23:49.685Z,69.58
2018-02-22T07:24:52.155Z,69.53
2018-02-22T07:25:54.627Z,69.53
2018-02-22T07:26:57.114Z,70.35
2018-02-22T07:27:59.602Z,69.85
2018-02-22T07:29:02.093Z,69.83
2018-02-22T07:30:04.612Z,69.47
2018-02-22T07:31:07.102Z,69.65
2018-02-22T07:32:09.578Z,69.34
2018-02-22T07:33:12.047Z,68.84
2018-02-22T07:34:15.404Z,68.75
2018-02-22T07:35:17.851Z,68.72
2018-02-22T07:36:20.351Z,69.00
2018-02-22T07:37:22.845Z,68.69
2018-02-22T07:38:25.325Z,68.86
2018-02-22T07:39:27.814Z,68.92
2018-02-22T07:40:30.291Z,68.67
2018-02-22T07:41:32.767Z,68.07
2018-02-22T07:42:35.253Z,68.13
2018-02-22T07:43:37.733Z,67.87
2018-02-22T07:44:40.215Z,68.58
2018-02-22T07:45:42.721Z,67.95
2018-02-22T07:46:45.205Z,67.45
2018-02-22T07:47:47.693Z,67.28
2018-02-22T07:48:50.178Z,66.93
2018-02-22T07:49:52.657Z,66.66
2018-02-22T07:50:55.141Z,65.34
2018-02-22T07:51:57.607Z,63.64
2018-02-22T07:53:00.081Z,60.81
2018-02-22T07:54:02.555Z,58.77
2018-02-22T07:55:05.046Z,56.14
2018-02-22T07:56:07.544Z,54.36
2018-02-22T07:57:10.031Z,50.93
2018-02-22T07:58:12.519Z,47.65
2018-02-22T07:59:14.988Z,44.95
2018-02-22T08:00:17.470Z,42.58
2018-02-22T08:01:20.133Z,42.29
2018-02-22T08:02:22.618Z,43.58
2018-02-22T08:03:25.392Z,44.52
2018-02-22T08:04:27.881Z,44.08
2018-02-22T08:05:30.357Z,44.44
2018-02-22T08:06:32.867Z,42.67
2018-02-22T08:07:35.343Z,40.43
2018-02-22T08:08:38.774Z,40.26
2018-02-22T08:09:41.268Z,40.14
2018-02-22T08:10:43.736Z,40.05
2018-02-22T08:11:46.219Z,41.29
2018-02-22T08:12:48.691Z,42.49
2018-02-22T08:13:51.155Z,41.60
2018-02-22T08:14:53.797Z,40.43
2018-02-22T08:15:56.275Z,39.30
2018-02-22T08:16:58.769Z,37.10
2018-02-22T08:18:01.246Z,37.85
2018-02-22T08:19:03.727Z,37.95
2018-02-22T08:20:06.207Z,36.63
2018-02-22T08:21:08.702Z,37.69
2018-02-22T08:22:11.202Z,37.69
2018-02-22T08:23:13.671Z,37.85
2018-02-22T08:24:16.142Z,39.40
2018-02-22T08:25:18.614Z,37.23
2018-02-22T08:26:21.097Z,36.14
2018-02-22T08:27:23.583Z,38.32
2018-02-22T08:28:26.066Z,36.64
2018-02-22T08:29:28.564Z,40.59
2018-02-22T08:30:31.030Z,38.50
2018-02-22T08:31:33.509Z,39.27
2018-02-22T08:32:35.995Z,38.70
2018-02-22T08:33:38.515Z,43.19
2018-02-22T08:34:40.971Z,39.66
2018-02-22T08:35:43.436Z,40.10
2018-02-22T08:36:45.932Z,37.36
2018-02-22T08:37:48.436Z,36.06
2018-02-22T08:38:50.907Z,36.11
2018-02-22T08:39:53.371Z,35.77
2018-02-22T08:40:55.861Z,37.72
2018-02-22T08:41:58.363Z,36.22
2018-02-22T08:43:00.833Z,33.64
2018-02-22T08:44:03.311Z,34.52
2018-02-22T08:45:05.820Z,38.18
2018-02-22T08:46:08.306Z,36.18
2018-02-22T08:47:10.776Z,37.94
2018-02-22T08:48:13.263Z,37.45
2018-02-22T08:49:15.773Z,38.32
2018-02-22T08:50:18.251Z,37.91
2018-02-22T08:51:20.718Z,39.42
2018-02-22T08:52:23.188Z,36.03
2018-02-22T08:53:25.746Z,36.08
2018-02-22T08:54:28.232Z,35.10
2018-02-22T08:55:31.637Z,36.79
2018-02-22T08:56:34.107Z,36.55
2018-02-22T08:57:36.582Z,37.19
2018-02-22T08:58:39.199Z,36.24
2018-02-22T08:59:41.681Z,37.80
2018-02-22T09:00:44.147Z,37.40
2018-02-22T09:01:46.634Z,37.34
2018-02-22T09:02:49.116Z,38.54
2018-02-22T09:03:51.596Z,38.09
2018-02-22T09:04:54.092Z,36.81
2018-02-22T09:05:56.556Z,35.79
2018-02-22T09:06:59.045Z,36.48
2018-02-22T09:08:01.526Z,37.25
2018-02-22T09:09:04.010Z,37.17
2018-02-22T09:10:06.782Z,35.36
2018-02-22T09:11:09.372Z,35.46
2018-02-22T09:12:11.875Z,36.48
2018-02-22T09:13:15.492Z,35.22
2018-02-22T09:14:17.963Z,32.68
2018-02-22T09:15:20.449Z,32.62
2018-02-22T09:16:22.990Z,32.28
2018-02-22T09:17:25.500Z,33.35
2018-02-22T09:18:27.988Z,35.54
2018-02-22T09:19:30.476Z,37.21
2018-02-22T09:20:32.981Z,38.12
2018-02-22T09:21:35.450Z,37.74
2018-02-22T09:22:37.929Z,36.77
2018-02-22T09:23:40.407Z,38.10
2018-02-22T09:24:42.871Z,36.80
2018-02-22T09:25:45.353Z,36.41
2018-02-22T09:26:47.833Z,36.19
2018-02-22T09:27:50.348Z,35.01
2018-02-22T09:28:52.825Z,35.08
2018-02-22T09:29:55.322Z,34.84
2018-02-22T09:30:57.813Z,32.54
2018-02-22T09:32:00.317Z,33.39
2018-02-22T09:33:02.825Z,31.91
2018-02-22T09:34:05.303Z,34.17
2018-02-22T09:35:07.780Z,32.60
2018-02-22T09:36:10.267Z,30.91
2018-02-22T09:37:12.755Z,32.02
2018-02-22T09:38:15.237Z,34.49
2018-02-22T09:39:17.749Z,33.39
2018-02-22T09:40:20.234Z,32.21
2018-02-22T09:41:22.722Z,30.36
2018-02-22T09:42:25.204Z,30.12
2018-02-22T09:43:27.682Z,29.91
2018-02-22T09:44:30.160Z,30.63
2018-02-22T09:45:32.651Z,29.29
2018-02-22T09:46:35.169Z,29.82
2018-02-22T09:47:37.653Z,30.42
2018-02-22T09:48:40.124Z,28.69
2018-02-22T09:49:42.628Z,30.45
2018-02-22T09:50:45.117Z,32.47
2018-02-22T09:51:47.605Z,30.29
2018-02-22T09:52:50.089Z,29.12
2018-02-22T09:53:52.581Z,28.78
2018-02-22T09:54:55.069Z,29.62
2018-02-22T09:55:57.557Z,31.03
2018-02-22T09:57:00.046Z,28.67
2018-02-22T09:58:02.520Z,29.44
2018-02-22T09:59:04.992Z,30.00
2018-02-22T10:00:07.482Z,28.30
2018-02-22T10:01:09.980Z,29.58
2018-02-22T10:02:12.467Z,29.37
2018-02-22T10:03:14.935Z,30.18
2018-02-22T10:04:17.427Z,28.25
2018-02-22T10:05:19.924Z,28.57
2018-02-22T10:06:22.403Z,28.82
2018-02-22T10:07:24.891Z,29.27
2018-02-22T10:08:27.373Z,30.01
2018-02-22T10:09:29.862Z,28.14
2018-02-22T10:10:32.432Z,28.44
2018-02-22T10:11:34.911Z,28.63
2018-02-22T10:12:37.414Z,29.01
2018-02-22T10:13:39.905Z,30.49
2018-02-22T10:14:42.379Z,29.45
2018-02-22T10:15:44.883Z,29.76
2018-02-22T10:16:47.370Z,30.57
2018-02-22T10:17:49.860Z,30.28
2018-02-22T10:18:52.397Z,29.46
2018-02-22T10:19:54.867Z,30.00
2018-02-22T10:20:57.340Z,29.00
2018-02-22T10:21:59.830Z,29.00
2018-02-22T10:23:02.324Z,29.55
2018-02-22T10:24:04.798Z,30.27
2018-02-22T10:25:07.291Z,29.30
2018-02-22T10:26:09.797Z,28.58
2018-02-22T10:27:12.268Z,28.26
2018-02-22T10:28:14.761Z,26.75
2018-02-22T10:29:17.245Z,28.69
2018-02-22T10:30:19.715Z,28.87
2018-02-22T10:31:22.196Z,30.10
2018-02-22T10:32:24.686Z,29.43
2018-02-22T10:33:27.216Z,29.02
2018-02-22T10:34:29.722Z,27.50
2018-02-22T10:35:32.215Z,27.32
2018-02-22T10:36:34.740Z,26.69
2018-02-22T10:37:37.236Z,27.92
2018-02-22T10:38:39.761Z,29.32
2018-02-22T10:39:42.243Z,28.66
2018-02-22T10:40:44.760Z,29.52
2018-02-22T10:41:47.256Z,28.47
2018-02-22T10:42:49.731Z,28.14
2018-02-22T10:43:52.223Z,27.37
2018-02-22T10:44:54.708Z,26.56
2018-02-22T10:45:57.216Z,27.51
2018-02-22T10:46:59.712Z,27.28
2018-02-22T10:48:02.191Z,27.78
2018-02-22T10:49:04.714Z,28.52
2018-02-22T10:50:07.266Z,28.57
2018-02-22T10:51:09.695Z,27.22
2018-02-22T10:52:12.642Z,26.76
2018-02-22T10:53:15.129Z,27.02
2018-02-22T10:54:17.622Z,27.08
2018-02-22T10:55:20.181Z,26.23
2018-02-22T10:56:22.661Z,26.84
2018-02-22T10:57:25.127Z,27.52
2018-02-22T10:58:27.717Z,26.58
2018-02-22T10:59:30.208Z,28.14
2018-02-22T11:00:38.372Z,28.26
2018-02-22T11:01:46.364Z,25.45
2018-02-22T11:02:52.683Z,25.20
2018-02-22T11:03:55.164Z,24.88
2018-02-22T11:04:57.845Z,25.88
2018-02-22T11:06:00.332Z,27.29
2018-02-22T11:07:02.817Z,26.90
2018-02-22T11:08:05.313Z,27.79
2018-02-22T11:09:07.802Z,27.02
2018-02-22T11:10:10.272Z,24.63
2018-02-22T11:11:12.762Z,23.85
2018-02-22T11:12:15.253Z,24.60
2018-02-22T11:13:17.736Z,25.95
2018-02-22T11:14:20.218Z,26.21
2018-02-22T11:15:22.723Z,26.44
2018-02-22T11:16:25.217Z,26.74
2018-02-22T11:17:27.711Z,23.91
2018-02-22T11:18:30.225Z,23.82
2018-02-22T11:19:32.695Z,25.77
2018-02-22T11:20:35.171Z,24.93
2018-02-22T11:21:37.656Z,23.94
2018-02-22T11:22:40.152Z,25.27
2018-02-22T11:23:42.680Z,25.83
2018-02-22T11:24:45.159Z,24.41
2018-02-22T11:25:47.650Z,24.16
2018-02-22T11:26:50.127Z,24.72
2018-02-22T11:27:52.625Z,23.91
2018-02-22T11:28:55.125Z,24.28
2018-02-22T11:29:57.595Z,24.89
2018-02-22T11:31:00.089Z,24.63
2018-02-22T11:32:02.576Z,24.92
2018-02-22T11:33:05.052Z,25.08
2018-02-22T11:34:07.544Z,24.65
2018-02-22T11:35:10.034Z,25.30
2018-02-22T11:36:12.504Z,24.39
2018-02-22T11:37:14.971Z,25.16
2018-02-22T11:38:17.458Z,26.37
2018-02-22T11:39:19.970Z,26.65
2018-02-22T11:40:22.448Z,26.25
2018-02-22T11:41:24.938Z,26.78
2018-02-22T11:42:27.433Z,27.57
2018-02-22T11:43:29.925Z,26.39
2018-02-22T11:44:32.436Z,26.13
2018-02-22T11:45:34.929Z,25.47
2018-02-22T11:46:37.399Z,26.21
2018-02-22T11:47:39.882Z,22.71
2018-02-22T11:48:42.360Z,23.91
2018-02-22T11:49:44.861Z,22.65
2018-02-22T11:50:47.335Z,24.68
2018-02-22T11:51:49.908Z,25.05
2018-02-22T11:52:52.355Z,24.98
2018-02-22T11:53:54.833Z,24.52
2018-02-22T11:54:57.322Z,22.05
2018-02-22T11:55:59.798Z,22.96
2018-02-22T11:57:02.289Z,22.42
2018-02-22T11:58:04.767Z,22.38
2018-02-22T11:59:07.486Z,23.31
2018-02-22T12:00:09.998Z,22.84
2018-02-22T12:01:12.711Z,22.03
2018-02-22T12:02:15.214Z,21.44
2018-02-22T12:03:17.694Z,23.28
2018-02-22T12:04:20.167Z,23.27
2018-02-22T12:05:22.666Z,22.98
2018-02-22T12:06:25.141Z,23.59
2018-02-22T12:07:27.633Z,22.46
2018-02-22T12:08:30.111Z,21.95
2018-02-22T12:09:32.615Z,22.79
2018-02-22T12:10:35.111Z,23.13
2018-02-22T12:11:37.602Z,22.98
2018-02-22T12:12:40.089Z,23.38
2018-02-22T12:13:42.630Z,24.49
2018-02-22T12:14:45.095Z,22.51
2018-02-22T12:15:47.598Z,22.29
2018-02-22T12:16:50.109Z,24.05
2018-02-22T12:17:52.578Z,23.33
2018-02-22T12:18:55.070Z,22.77
2018-02-22T12:19:57.562Z,21.77
2018-02-22T12:21:00.075Z,21.32
2018-02-22T12:22:02.547Z,23.33
2018-02-22T12:23:05.033Z,20.93
2018-02-22T12:24:07.529Z,22.21
2018-02-22T12:25:10.057Z,20.38
2018-02-22T12:26:12.616Z,19.86
2018-02-22T12:27:15.116Z,19.11
2018-02-22T12:28:17.605Z,19.57
2018-02-22T12:29:20.076Z,19.89
2018-02-22T12:30:22.554Z,20.53
2018-02-22T12:31:25.168Z,20.00
2018-02-22T12:32:27.677Z,19.33
2018-02-22T12:33:30.148Z,19.66
2018-02-22T12:34:32.622Z,21.73
2018-02-22T12:35:35.107Z,18.80
2018-02-22T12:36:37.609Z,18.56
2018-02-22T12:37:40.089Z,18.96
2018-02-22T12:38:42.581Z,18.05
2018-02-22T12:39:45.073Z,18.83
2018-02-22T12:40:47.561Z,18.87
2018-02-22T12:41:50.196Z,19.25
2018-02-22T12:42:52.702Z,19.35
2018-02-22T12:43:55.188Z,19.33
2018-02-22T12:44:57.670Z,19.34
2018-02-22T12:46:00.350Z,18.68
2018-02-22T12:47:02.914Z,17.16
2018-02-22T12:48:05.461Z,16.39
2018-02-22T12:49:07.945Z,16.56
2018-02-22T12:50:10.447Z,16.72
2018-02-22T12:51:13.444Z,17.20
2018-02-22T12:52:15.958Z,16.87
2018-02-22T12:53:18.477Z,16.08
2018-02-22T12:54:21.027Z,16.42
2018-02-22T12:55:23.642Z,17.31
2018-02-22T12:56:26.201Z,16.93
2018-02-22T12:57:28.729Z,16.93
2018-02-22T12:58:31.344Z,17.06
2018-02-22T12:59:33.852Z,15.42
2018-02-22T13:00:36.347Z,15.67
2018-02-22T13:01:38.834Z,15.19
2018-02-22T13:02:41.866Z,16.36
2018-02-22T13:03:44.354Z,17.15
2018-02-22T13:04:46.837Z,16.70
2018-02-22T13:05:49.320Z,18.49
2018-02-22T13:06:51.807Z,18.91
2018-02-22T13:07:54.338Z,18.27
2018-02-22T13:08:56.864Z,19.10
2018-02-22T13:09:59.342Z,18.02
2018-02-22T13:11:01.889Z,18.56
2018-02-22T13:12:04.383Z,19.15
2018-02-22T13:13:06.883Z,18.51
2018-02-22T13:14:09.355Z,17.56
2018-02-22T13:15:11.836Z,18.10
2018-02-22T13:16:14.315Z,17.68
2018-02-22T13:17:16.783Z,17.41
2018-02-22T13:18:19.290Z,17.01
2018-02-22T13:19:21.779Z,15.79
2018-02-22T13:20:24.247Z,16.44
2018-02-22T13:21:26.727Z,17.38
2018-02-22T13:22:29.206Z,15.94
2018-02-22T13:23:31.714Z,15.74
2018-02-22T13:24:34.189Z,17.04
2018-02-22T13:25:36.670Z,18.14